Latest Coastal Weather Observations for Friendly Beaches

IDT60701

Issued at 4:52 am EST Saturday 2 July 2016 (issued every 10 minutes, with the page automatically refreshed every 10 minutes)

About coastal observations | Map of coastal stations | Coastal observations for TAS | Marine services | Other Formats
Station Details ID: 092114 Name: FRIENDLY BEACHES Lat: -42.00 Lon: 148.28 Height: 55.0 m
Data from the previous 72 hours. | See also: Recent months at Friendly Beaches
Date/Time
EST
Temp
°C
Wind Pressure Rain since
9am
mm
Weather Cloud Vis
km
Sea
Height
m
Swell
Dir  Spd
kts
Gust
kts
hPa Trend Height
m
Period
s
Dir
02/04:30am 7.6 NNE 3 4 1013.0 - 0.0 - - - - - - -
02/04:00am 8.2 N 4 5 1013.2 - 0.0 - - - - - - -
02/03:30am 7.7 NNE 2 3 1013.5 - 0.0 - - - - - - -
02/03:00am 8.3 N 3 4 1013.6 - 0.0 - - - - - - -
02/02:30am 8.5 NNW 3 4 1013.8 - 0.0 - - - - - - -
02/02:00am 9.6 NNW 3 6 1013.9 - 0.0 - - - - - - -
02/01:30am 9.9 NNW 5 8 1013.7 - 0.0 - - - - - - -
02/01:00am 8.7 N 4 6 1013.7 - 0.0 - - - - - - -
02/12:30am 7.9 N 3 3 1013.9 - 0.0 - - - - - - -
02/12:00am 7.8 NW 4 5 1014.2 - 0.0 - - - - - - -
 
Date/Time
EST
Temp
°C
Wind Pressure Rain since
9am
mm
Weather Cloud Vis
km
Sea
Height
m
Swell
Dir  Spd
kts
Gust
kts
hPa Trend Height
m
Period
s
Dir
01/11:30pm 7.8 NW 3 3 1014.4 - 0.0 - - - - - - -
01/11:00pm 8.3 NNW 5 7 1014.5 - 0.0 - - - - - - -
01/10:30pm 8.0 NNW 4 6 1014.6 - 0.0 - - - - - - -
01/10:00pm 7.4 WNW 4 5 1014.7 - 0.0 - - - - - - -
01/09:30pm 7.7 NW 5 5 1014.6 - 0.0 - - - - - - -
01/09:00pm 7.8 NW 3 4 1014.7 - 0.0 - - - - - - -
01/08:30pm 8.3 NW 4 5 1014.6 - 0.0 - - - - - - -
01/08:00pm 8.1 NW 3 5 1014.6 - 0.0 - - - - - - -
01/07:30pm 8.4 CALM 0 0 1014.5 - 0.0 - - - - - - -
01/07:00pm 9.0 NW 2 4 1014.3 - 0.0 - - - - - - -
01/06:30pm 9.1 NNW 3 5 1014.2 - 0.0 - - - - - - -
01/06:00pm 10.1 NW 4 7 1014.0 - 0.0 - - - - - - -
01/05:30pm 10.2 NW 5 8 1013.5 - 0.0 - - - - - - -
01/05:00pm 10.2 NNW 4 6 1013.3 - 0.0 - - - - - - -
01/04:30pm 11.1 NW 6 8 1013.2 - 0.0 - - - - - - -
01/04:00pm 11.5 NW 3 5 1012.8 - 0.0 - - - - - - -
01/03:30pm 12.8 NW 6 10 1012.7 - 0.0 - - - - - - -
01/03:00pm 14.0 W 3 5 1012.2 - 0.0 - - - - - - -
01/02:30pm 12.9 WNW 3 5 1012.2 - 0.0 - - - - - - -
01/02:00pm 12.5 WNW 3 5 1011.9 - 0.0 - - - - - - -
01/01:30pm 13.9 W 4 7 1011.9 - 0.0 - - - - - - -
01/01:00pm 14.2 WNW 3 7 1011.8 - 0.0 - - - - - - -
01/12:30pm 13.6 WNW 3 5 1011.9 - 0.0 - - - - - - -
01/12:00pm 13.4 W 3 6 1012.3 - 0.0 - - - - - - -
01/11:30am 12.5 WSW 4 7 1012.4 - 0.0 - - - - - - -
01/11:00am 11.9 WSW 3 5 1012.4 - 0.0 - - - - - - -
01/10:30am 11.2 W 3 5 1012.5 - 0.0 - - - - - - -
01/10:00am 10.0 W 3 5 1012.2 - 0.0 - - - - - - -
01/09:30am 9.0 W 3 5 1012.0 - 0.0 - - - - - - -
01/09:00am 8.3 W 4 5 1011.9 - 0.0 - - - - - - -
01/08:30am 7.7 W 5 6 1011.6 - 0.0 - - - - - - -
01/08:00am 6.9 WNW 5 6 1011.1 - 0.0 - - - - - - -
01/07:30am 6.4 WNW 5 5 1010.8 - 0.0 - - - - - - -
01/07:00am 7.0 W 5 8 1010.7 - 0.0 - - - - - - -
01/06:30am 7.5 W 5 8 1010.2 - 0.0 - - - - - - -
01/06:00am 7.7 WSW 5 6 1009.6 - 0.0 - - - - - - -
01/05:30am 7.9 W 4 5 1008.9 - 0.0 - - - - - - -
01/05:00am 8.4 W 4 6 1008.5 - 0.0 - - - - - - -
01/04:30am 8.8 WSW 4 6 1008.3 - 0.0 - - - - - - -
01/04:00am 8.5 W 4 6 1007.8 - 0.0 - - - - - - -
01/03:30am 8.5 W 5 7 1007.5 - 0.0 - - - - - - -
01/03:00am 8.0 WNW 6 7 1007.1 - 0.0 - - - - - - -
01/02:30am 8.4 W 4 7 1006.8 - 0.0 - - - - - - -
01/02:00am 8.3 WSW 3 4 1006.3 - 0.0 - - - - - - -
01/01:30am 8.6 SE 1 2 1005.8 - 0.0 - - - - - - -
01/01:00am 9.2 WSW 2 2 1005.3 - 0.0 - - - - - - -
01/12:30am 9.1 NNW 2 2 1004.9 - 0.0 - - - - - - -
01/12:00am 9.7 N 4 7 1004.8 - 0.0 - - - - - - -
 
Date/Time
EST
Temp
°C
Wind Pressure Rain since
9am
mm
Weather Cloud Vis
km
Sea
Height
m
Swell
Dir  Spd
kts
Gust
kts
hPa Trend Height
m
Period
s
Dir
30/11:30pm 9.3 N 4 6 1004.9 - 0.0 - - - - - - -
30/11:00pm 9.4 NNW 3 4 1005.0 - 0.0 - - - - - - -
30/10:30pm 9.7 N 5 8 1005.2 - 0.0 - - - - - - -
30/10:00pm 9.9 N 6 9 1005.1 - 0.0 - - - - - - -
30/09:30pm 10.4 N 4 5 1005.0 - 0.0 - - - - - - -
30/09:00pm 10.3 N 5 7 1004.8 - 0.0 - - - - - - -
30/08:30pm 10.2 N 6 9 1004.6 - 0.0 - - - - - - -
30/08:00pm 10.3 N 6 11 1004.5 - 0.0 - - - - - - -
30/07:30pm 10.3 N 7 11 1004.2 - 0.0 - - - - - - -
30/07:00pm 10.3 N 7 12 1004.1 - 0.0 - - - - - - -
30/06:30pm 10.1 N 6 10 1004.1 - 0.0 - - - - - - -
30/06:00pm 10.0 N 8 15 1003.6 - 0.0 - - - - - - -
30/05:30pm 10.0 NNE 8 15 1003.3 - 0.0 - - - - - - -
30/05:00pm 10.2 NNE 9 15 1003.2 - 0.0 - - - - - - -
30/04:30pm 10.4 N 8 15 1003.1 - 0.0 - - - - - - -
30/04:00pm 10.5 N 6 11 1003.3 - 0.0 - - - - - - -
30/03:30pm 10.8 N 7 11 1003.4 - 0.0 - - - - - - -
30/03:00pm 10.9 N 6 11 1003.7 - 0.0 - - - - - - -
30/02:30pm 11.0 N 7 14 1003.7 - 0.0 - - - - - - -
30/02:00pm 11.1 N 7 16 1003.7 - 0.0 - - - - - - -
30/01:30pm 11.5 NNW 10 16 1003.6 - 0.0 - - - - - - -
30/01:00pm 11.8 NNW 14 24 1003.8 - 0.0 - - - - - - -
30/12:30pm 11.9 N 10 16 1004.7 - 0.0 - - - - - - -
30/12:00pm 11.8 N 9 15 1005.5 - 0.0 - - - - - - -
30/11:30am 12.3 N 9 17 1006.1 - 0.0 - - - - - - -
30/11:00am 12.0 N 8 13 1006.7 - 0.0 - - - - - - -
30/10:30am 11.6 N 6 9 1007.3 - 0.0 - - - - - - -
30/10:00am 11.7 N 8 16 1007.9 - 0.0 - - - - - - -
30/09:30am 11.5 N 6 12 1008.3 - 0.0 - - - - - - -
30/09:00am 11.2 N 8 13 1008.4 - 0.0 - - - - - - -
30/08:30am 11.2 N 9 17 1008.8 - 0.0 - - - - - - -
30/08:00am 11.1 N 7 15 1009.2 - 0.0 - - - - - - -
30/07:30am 11.0 N 6 12 1009.5 - 0.0 - - - - - - -
30/07:00am 11.0 N 6 9 1009.8 - 0.0 - - - - - - -
30/06:30am 11.5 N 8 15 1010.3 - 0.0 - - - - - - -
30/06:00am 11.5 NNW 8 13 1010.5 - 0.0 - - - - - - -
30/05:30am 11.5 N 8 15 1010.8 - 0.0 - - - - - - -
30/05:00am 11.8 NNW 12 22 1010.8 - 0.0 - - - - - - -
30/04:30am 11.4 N 10 17 1010.8 - 0.0 - - - - - - -
30/04:00am 11.6 N 12 18 1011.2 - 0.0 - - - - - - -
30/03:30am 11.4 N 10 19 1011.9 - 0.0 - - - - - - -
30/03:00am 11.1 N 9 13 1012.2 - 0.0 - - - - - - -
30/02:30am 10.8 N 7 11 1012.7 - 0.0 - - - - - - -
30/02:00am 10.5 NNE 5 8 1013.3 - 0.0 - - - - - - -
30/01:30am 11.1 NNE 7 11 1013.6 - 0.0 - - - - - - -
30/01:00am 11.5 N 9 15 1014.0 - 0.0 - - - - - - -
30/12:30am 11.6 N 9 13 1014.5 - 0.0 - - - - - - -
30/12:00am 11.5 N 7 12 1015.3 - 0.0 - - - - - - -
 
Date/Time
EST
Temp
°C
Wind Pressure Rain since
9am
mm
Weather Cloud Vis
km
Sea
Height
m
Swell
Dir  Spd
kts
Gust
kts
hPa Trend Height
m
Period
s
Dir
29/11:30pm 10.3 N 1 5 1015.9 - 0.0 - - - - - - -
29/11:00pm 10.7 NNW 4 11 1016.2 - 0.0 - - - - - - -
29/10:30pm 10.5 NW 5 7 1016.5 - 0.0 - - - - - - -
29/10:00pm 10.6 NNW 5 8 1016.7 - 0.0 - - - - - - -
29/09:30pm 10.4 WNW 4 7 1016.9 - 0.0 - - - - - - -
29/09:00pm 10.0 WNW 3 6 1017.2 - 0.0 - - - - - - -
29/08:30pm 10.7 WNW 5 8 1017.5 - 0.0 - - - - - - -
29/08:00pm 10.6 NW 5 10 1017.8 - 0.0 - - - - - - -
29/07:30pm 10.4 NW 3 4 1018.0 - 0.0 - - - - - - -
29/07:00pm 11.0 NW 3 6 1018.2 - 0.0 - - - - - - -
29/06:30pm 11.3 NW 3 5 1018.3 - 0.0 - - - - - - -
29/06:00pm 12.1 NW 3 6 1018.3 - 0.0 - - - - - - -
29/05:30pm 12.4 NW 3 6 1018.3 - 0.0 - - - - - - -
29/05:00pm 12.8 NNW 4 7 1018.4 - 0.0 - - - - - - -
29/04:30pm 12.9 NW 4 7 1018.4 - 0.0 - - - - - - -
29/04:00pm 13.7 NNW 4 8 1018.5 - 0.0 - - - - - - -
29/03:30pm 14.5 WNW 3 7 1018.5 - 0.0 - - - - - - -
29/03:00pm 15.7 WNW 6 10 1018.5 - 0.0 - - - - - - -
29/02:30pm 15.8 WNW 6 13 1018.6 - 0.0 - - - - - - -
29/02:00pm 15.8 W 8 13 1018.7 - 0.0 - - - - - - -
29/01:30pm 15.7 W 6 9 1018.7 - 0.0 - - - - - - -
29/01:00pm 14.4 WSW 5 9 1018.9 - 0.0 - - - - - - -
29/12:30pm 14.0 W 7 12 1019.3 - 0.0 - - - - - - -
29/12:00pm 13.4 WNW 4 8 1019.6 - 0.0 - - - - - - -
29/11:30am 12.7 W 3 5 1019.7 - 0.0 - - - - - - -
29/11:00am 12.0 WSW 3 5 1020.1 - 0.0 - - - - - - -
29/10:30am 11.8 W 3 7 1020.2 - 0.0 - - - - - - -
29/10:00am 11.4 W 7 11 1019.8 - 0.0 - - - - - - -
29/09:30am 11.6 WNW 7 11 1019.8 - 0.0 - - - - - - -
29/09:00am 11.2 W 6 9 1020.0 - 0.0 - - - - - - -
29/08:30am 10.5 W 5 8 1019.8 - 0.0 - - - - - - -
29/08:00am 10.9 W 5 8 1019.5 - 0.0 - - - - - - -
29/07:30am 10.6 WSW 4 6 1019.5 - 0.0 - - - - - - -
29/07:00am 10.8 WSW 3 5 1018.9 - 0.0 - - - - - - -
29/06:30am 11.1 WNW 6 10 1018.6 - 0.0 - - - - - - -
29/06:00am 11.0 W 5 9 1018.3 - 0.0 - - - - - - -
29/05:30am 11.4 W 6 11 1018.2 - 0.0 - - - - - - -
29/05:00am 11.3 WSW 5 9 1018.1 - 0.0 - - - - - - -

Other Formats:

Comma delimited format used in spreadsheet applications
http://www.bom.gov.au/fwo/IDT60701/IDT60701.94987.axf

JavaScript Object Notation format (JSON) in row-major order
http://www.bom.gov.au/fwo/IDT60701/IDT60701.94987.json